Cullowhee, NC

4:48 AM EDT on October 02, 2014 (GMT -0400)
SHReserve | Change Station
CLOSE
Current Station
Personal Weather Station
Location: Lake Toxaway, NC
Elevation: 4367 ft
Nearby Weather Stations

Elev 4367 ft 35.14 °N, 82.98 °W | Updated 1 minute ago

Fog
Fog
56.4 °F
Feels Like 56.4 °F
N
0.0
Wind Variable Wind from North
Gusts 0.0 mph

Today
High -- | Low -- °F
--% Chance of Precip.
Yesterday
High -- | Low -- °F
Precip. -- in
7:28 AM 7:15 PM
First Quarter, 56% visible
Pressure 30.15 in
Visibility 0.2 miles
Clouds
Dew Point 54 °F
Humidity 91%
Rainfall 0.00 in
Snow Depth Not available.
UV Not available.
Pollen 4.30 out of 12
Ozone Good
PM2.5 Good
Flu Activity Not available.
METAR K1A5 020835Z AUTO 00000KT 1/4SM FG 11/11 A3015 RMK AO2 T01100107

More Conditions Fewer Conditions

Pressure 30.15 in
Visibility 0.2 miles
Clouds
Dew Point 54 °F
Humidity 91%
Rainfall 0.00 in
Snow Depth Not available.
UV Not available.
Pollen 4.30 out of 12
Ozone Good
PM2.5 Good
Flu Activity Not available.
METAR K1A5 020835Z AUTO 00000KT 1/4SM FG 11/11 A3015 RMK AO2 T01100107

More Conditions Fewer Conditions

10-Day Weather Forecast

Almanac

Astronomy

Oct. 02, 2014 Rise Set
Actual Time 7:28 AM EDT 7:15 PM EDT
Civil Twilight 7:02 AM EDT 7:40 PM EDT
Nautical Twilight 6:33 AM EDT 8:09 PM EDT
Astronomical Twilight 6:03 AM EDT 8:39 PM EDT
Moon 3:09 PM EDT 12:56 AM EDT
Length of Visible Light 12h 37m
Length of Day
11h 46m
Tomorrow will be 2m 11s shorter.
First Quarter, 56% of the Moon is Illuminated
Today
First Quarter
Oct 8
Full
Oct 15
Last Quarter
Oct 23
New
Oct 30
First Quarter

Today's Extremes

State Highs State Lows

Community

WunderPhotos

Upload Photos

1,758,196 photos uploaded!

WunderBlogs® & News

By Dr. Jeff Masters
Director of Meteorology, Weather Underground
By Kari Strenfel
Meteorologist, Weather Underground
By Christopher C. Burt
Weather Historian, Weather Underground
October 2, 2014
October 2, 2014
October 2, 2014

Nearby

Air Quality

  Air Quality AQ Index Pollutant
Yesterday Good
PM2.5
Yesterday Good
OZONE
Current Good
PM2.5
Current Good
OZONE
Thursday Moderate
PM2.5
Thursday Good
OZONE
Friday Good
PM2.5
Friday Good
OZONE
Saturday Good
PM2.5
Saturday Good
OZONE

Snow Depth

Station Depth Elevation
No new snow has been reported.

Earthquake Activity

City Distance Mag. Time & Date
No recent earthquake activity has been reported nearby.
Minimum magnitude displayed is 2.5.

Coastal Water Temperatures

Place Temperature
No Stations Reporting

Nearby Weather Stations